MEA565 OLBA-LGTS
Flight info
| Callsign | MEA565 |
|---|---|
| Flight time | 1h 50m |
| Altitude | 40000 |
| Route | KAD UR219 KUKLA M31 LCA M601 EVENO UM601 EXELA UN127 LMO UN128 PEREN UM603 ARNAS |
| Aircraft | A359/H-SDE2E3GHIJ3J4J5LM1ORWXY/LB1D1 |
Departure
| Time | 2026-05-07 15:42 |
|---|---|
| Airport | Beirut Rafic Hariri International Airport (OLBA) |
Arrival
| Time | 2026-05-07 17:33 |
|---|---|
| Airport | Thessaloniki Macedonia International Airport (LGTS) |
| Time | Latitude | Longitude | Altitude | Speed | Heading |
|---|---|---|---|---|---|
| 2026-05-07 15:37 | 33.82187 | 35.49194 | 80 ft | 0 kts | 338° |
| 2026-05-07 15:38 | 33.82192 | 35.49186 | 83 ft | 3 kts | 314° |
| 2026-05-07 15:38 | 33.82223 | 35.49131 | 86 ft | 14 kts | 294° |
| 2026-05-07 15:38 | 33.82171 | 35.49029 | 86 ft | 18 kts | 184° |
| 2026-05-07 15:38 | 33.81987 | 35.49047 | 82 ft | 35 kts | 175° |
| 2026-05-07 15:39 | 33.81696 | 35.49066 | 85 ft | 49 kts | 178° |
| 2026-05-07 15:39 | 33.81466 | 35.49078 | 79 ft | 51 kts | 176° |
| 2026-05-07 15:39 | 33.81056 | 35.49038 | 76 ft | 30 kts | 206° |
| 2026-05-07 15:39 | 33.80949 | 35.48935 | 70 ft | 26 kts | 234° |
| 2026-05-07 15:40 | 33.80940 | 35.48890 | 72 ft | 7 kts | 281° |
| 2026-05-07 15:40 | 33.80978 | 35.48859 | 73 ft | 6 kts | 4° |
| 2026-05-07 15:40 | 33.81040 | 35.48874 | 77 ft | 12 kts | 8° |
| 2026-05-07 15:40 | 33.81142 | 35.48877 | 82 ft | 17 kts | 355° |
| 2026-05-07 15:41 | 33.81211 | 35.48799 | 75 ft | 9 kts | 268° |
| 2026-05-07 15:41 | 33.81163 | 35.48730 | 74 ft | 10 kts | 225° |
| 2026-05-07 15:41 | 33.81166 | 35.48697 | 76 ft | 8 kts | 311° |
| 2026-05-07 15:41 | 33.81337 | 35.48627 | 69 ft | 53 kts | 346° |
| 2026-05-07 15:42 | 33.82043 | 35.48432 | 70 ft | 152 kts | 349° |
| 2026-05-07 15:42 | 33.83321 | 35.48080 | 292 ft | 221 kts | 349° |
| 2026-05-07 15:42 | 33.85013 | 35.47616 | 757 ft | 262 kts | 345° |
| 2026-05-07 15:42 | 33.86663 | 35.46757 | 1968 ft | 254 kts | 334° |
| 2026-05-07 15:43 | 33.88111 | 35.45553 | 2871 ft | 255 kts | 320° |
| 2026-05-07 15:43 | 33.89327 | 35.43999 | 3703 ft | 257 kts | 311° |
| 2026-05-07 15:43 | 33.90418 | 35.42276 | 4453 ft | 259 kts | 308° |
| 2026-05-07 15:43 | 33.91444 | 35.40480 | 5158 ft | 262 kts | 304° |
| 2026-05-07 15:44 | 33.92439 | 35.38609 | 5736 ft | 270 kts | 302° |
| 2026-05-07 15:44 | 33.93432 | 35.36654 | 6322 ft | 276 kts | 301° |
| 2026-05-07 15:44 | 33.94426 | 35.34654 | 6934 ft | 280 kts | 300° |
| 2026-05-07 15:44 | 33.95422 | 35.32636 | 7617 ft | 281 kts | 300° |
| 2026-05-07 15:45 | 33.96425 | 35.30612 | 8321 ft | 282 kts | 300° |
| 2026-05-07 15:45 | 33.97435 | 35.28586 | 9023 ft | 283 kts | 300° |
| 2026-05-07 15:45 | 33.98454 | 35.26549 | 9730 ft | 285 kts | 300° |
| 2026-05-07 15:45 | 33.99482 | 35.24502 | 10357 ft | 288 kts | 300° |
| 2026-05-07 15:46 | 34.01668 | 35.20153 | 10866 ft | 319 kts | 300° |
| 2026-05-07 15:46 | 34.02843 | 35.17814 | 11099 ft | 333 kts | 300° |
| 2026-05-07 15:46 | 34.04065 | 35.15380 | 11361 ft | 345 kts | 300° |
| 2026-05-07 15:47 | 34.05317 | 35.12887 | 11791 ft | 350 kts | 300° |
| 2026-05-07 15:47 | 34.06581 | 35.10370 | 12294 ft | 352 kts | 300° |
| 2026-05-07 15:47 | 34.07854 | 35.07833 | 12796 ft | 355 kts | 300° |
| 2026-05-07 15:47 | 34.09132 | 35.05282 | 13277 ft | 357 kts | 300° |
| 2026-05-07 15:48 | 34.10421 | 35.02706 | 13754 ft | 360 kts | 300° |
| 2026-05-07 15:48 | 34.11703 | 35.00143 | 14208 ft | 362 kts | 300° |
| 2026-05-07 15:48 | 34.13022 | 34.97500 | 14651 ft | 364 kts | 300° |
| 2026-05-07 15:48 | 34.14329 | 34.94882 | 15092 ft | 366 kts | 300° |
| 2026-05-07 15:49 | 34.15628 | 34.92277 | 15515 ft | 368 kts | 300° |
| 2026-05-07 15:49 | 34.16952 | 34.89622 | 15970 ft | 369 kts | 301° |
| 2026-05-07 15:49 | 34.18279 | 34.86959 | 16433 ft | 371 kts | 301° |
| 2026-05-07 15:49 | 34.19608 | 34.84287 | 16917 ft | 372 kts | 301° |
| 2026-05-07 15:50 | 34.20942 | 34.81605 | 17379 ft | 373 kts | 301° |
| 2026-05-07 15:50 | 34.22282 | 34.78909 | 17834 ft | 375 kts | 301° |
| 2026-05-07 15:50 | 34.23626 | 34.76204 | 18303 ft | 376 kts | 301° |
| 2026-05-07 15:50 | 34.24978 | 34.73488 | 18711 ft | 378 kts | 301° |
| 2026-05-07 15:51 | 34.26402 | 34.70814 | 19104 ft | 379 kts | 303° |
| 2026-05-07 15:51 | 34.27894 | 34.68177 | 19482 ft | 381 kts | 304° |
| 2026-05-07 15:51 | 34.29414 | 34.65549 | 19870 ft | 382 kts | 305° |
| 2026-05-07 15:51 | 34.30940 | 34.62911 | 20264 ft | 383 kts | 305° |
| 2026-05-07 15:52 | 34.32462 | 34.60259 | 20649 ft | 384 kts | 304° |
| 2026-05-07 15:52 | 34.33977 | 34.57593 | 21042 ft | 386 kts | 304° |
| 2026-05-07 15:52 | 34.35492 | 34.54905 | 21426 ft | 387 kts | 304° |
| 2026-05-07 15:52 | 34.37007 | 34.52203 | 21795 ft | 389 kts | 304° |
| 2026-05-07 15:53 | 34.38525 | 34.49490 | 22154 ft | 390 kts | 304° |
| 2026-05-07 15:53 | 34.40048 | 34.46762 | 22517 ft | 392 kts | 304° |
| 2026-05-07 15:53 | 34.41576 | 34.44022 | 22877 ft | 393 kts | 304° |
| 2026-05-07 15:53 | 34.43111 | 34.41271 | 23221 ft | 395 kts | 304° |
| 2026-05-07 15:54 | 34.44652 | 34.38508 | 23577 ft | 396 kts | 304° |
| 2026-05-07 15:54 | 34.46202 | 34.35732 | 23871 ft | 398 kts | 304° |
| 2026-05-07 15:54 | 34.47773 | 34.32952 | 24135 ft | 400 kts | 305° |
| 2026-05-07 15:54 | 34.49357 | 34.30166 | 24423 ft | 402 kts | 305° |
| 2026-05-07 15:55 | 34.50948 | 34.27371 | 24706 ft | 404 kts | 305° |
| 2026-05-07 15:55 | 34.52546 | 34.24559 | 24998 ft | 406 kts | 305° |
| 2026-05-07 15:55 | 34.54130 | 34.21766 | 25273 ft | 408 kts | 305° |
| 2026-05-07 15:55 | 34.55739 | 34.18923 | 25576 ft | 410 kts | 305° |
| 2026-05-07 15:56 | 34.57352 | 34.16067 | 25863 ft | 411 kts | 305° |
| 2026-05-07 15:56 | 34.58972 | 34.13196 | 26161 ft | 413 kts | 305° |
| 2026-05-07 15:56 | 34.60603 | 34.10302 | 26474 ft | 415 kts | 305° |
| 2026-05-07 15:56 | 34.62235 | 34.07402 | 26789 ft | 417 kts | 305° |
| 2026-05-07 15:57 | 34.63877 | 34.04484 | 27125 ft | 419 kts | 305° |
| 2026-05-07 15:57 | 34.65529 | 34.01557 | 27451 ft | 421 kts | 305° |
| 2026-05-07 15:57 | 34.67193 | 33.98614 | 27823 ft | 423 kts | 305° |
| 2026-05-07 15:57 | 34.68868 | 33.95654 | 28181 ft | 426 kts | 305° |
| 2026-05-07 15:58 | 34.70547 | 33.92682 | 28549 ft | 428 kts | 305° |
| 2026-05-07 15:58 | 34.72236 | 33.89690 | 28915 ft | 430 kts | 305° |
| 2026-05-07 15:58 | 34.73936 | 33.86674 | 29291 ft | 433 kts | 305° |
| 2026-05-07 15:58 | 34.75630 | 33.83639 | 29679 ft | 435 kts | 304° |
| 2026-05-07 15:59 | 34.77327 | 33.80578 | 30072 ft | 438 kts | 304° |
| 2026-05-07 15:59 | 34.79034 | 33.77493 | 30426 ft | 440 kts | 304° |
| 2026-05-07 15:59 | 34.80722 | 33.74440 | 30778 ft | 442 kts | 304° |
| 2026-05-07 15:59 | 34.82443 | 33.71330 | 31133 ft | 444 kts | 304° |
| 2026-05-07 16:00 | 34.84194 | 33.68167 | 31494 ft | 446 kts | 304° |
| 2026-05-07 16:00 | 34.85916 | 33.65018 | 31821 ft | 448 kts | 303° |
| 2026-05-07 16:00 | 34.87384 | 33.61714 | 32152 ft | 451 kts | 295° |
| 2026-05-07 16:00 | 34.88590 | 33.58125 | 32482 ft | 453 kts | 292° |
| 2026-05-07 16:01 | 34.89698 | 33.54525 | 32804 ft | 455 kts | 291° |
| 2026-05-07 16:01 | 34.90757 | 33.50924 | 33104 ft | 457 kts | 291° |
| 2026-05-07 16:01 | 34.91813 | 33.47264 | 33405 ft | 459 kts | 290° |
| 2026-05-07 16:01 | 34.92868 | 33.43584 | 33743 ft | 460 kts | 291° |
| 2026-05-07 16:02 | 34.93926 | 33.39912 | 34215 ft | 457 kts | 291° |
| 2026-05-07 16:02 | 34.94978 | 33.36267 | 34629 ft | 456 kts | 291° |
| 2026-05-07 16:02 | 34.96031 | 33.32626 | 34960 ft | 456 kts | 291° |
| 2026-05-07 16:02 | 34.97085 | 33.28981 | 35295 ft | 456 kts | 290° |
| 2026-05-07 16:03 | 34.98139 | 33.25339 | 35643 ft | 455 kts | 290° |
| 2026-05-07 16:03 | 34.99191 | 33.21699 | 36010 ft | 455 kts | 290° |
| 2026-05-07 16:03 | 35.00243 | 33.18057 | 36361 ft | 455 kts | 290° |
| 2026-05-07 16:03 | 35.01291 | 33.14422 | 36708 ft | 455 kts | 290° |
| 2026-05-07 16:04 | 35.02344 | 33.10784 | 37067 ft | 455 kts | 290° |
| 2026-05-07 16:04 | 35.03393 | 33.07144 | 37437 ft | 454 kts | 290° |
| 2026-05-07 16:04 | 35.04439 | 33.03508 | 37774 ft | 454 kts | 290° |
| 2026-05-07 16:04 | 35.05481 | 32.99871 | 38109 ft | 454 kts | 290° |
| 2026-05-07 16:05 | 35.06521 | 32.96241 | 38445 ft | 453 kts | 290° |
| 2026-05-07 16:05 | 35.07560 | 32.92608 | 38784 ft | 453 kts | 290° |
| 2026-05-07 16:05 | 35.08574 | 32.88973 | 39043 ft | 452 kts | 289° |
| 2026-05-07 16:05 | 35.09555 | 32.85321 | 39292 ft | 452 kts | 289° |
| 2026-05-07 16:06 | 35.10520 | 32.81673 | 39539 ft | 452 kts | 289° |
| 2026-05-07 16:06 | 35.11470 | 32.78067 | 39775 ft | 451 kts | 289° |
| 2026-05-07 16:06 | 35.12435 | 32.74417 | 39998 ft | 452 kts | 289° |
| 2026-05-07 16:06 | 35.13404 | 32.70762 | 40121 ft | 453 kts | 289° |
| 2026-05-07 16:07 | 35.14379 | 32.67095 | 40153 ft | 453 kts | 289° |
| 2026-05-07 16:07 | 35.16338 | 32.59732 | 40154 ft | 453 kts | 289° |
| 2026-05-07 16:08 | 35.18270 | 32.52460 | 40158 ft | 453 kts | 289° |
| 2026-05-07 16:08 | 35.20210 | 32.45137 | 40161 ft | 453 kts | 289° |
| 2026-05-07 16:09 | 35.22146 | 32.37807 | 40168 ft | 453 kts | 289° |
| 2026-05-07 16:09 | 35.24076 | 32.30480 | 40169 ft | 452 kts | 289° |
| 2026-05-07 16:10 | 35.25999 | 32.23156 | 40172 ft | 452 kts | 289° |
| 2026-05-07 16:10 | 35.27918 | 32.15829 | 40169 ft | 452 kts | 289° |
| 2026-05-07 16:11 | 35.29833 | 32.08498 | 40177 ft | 452 kts | 289° |
| 2026-05-07 16:11 | 35.31749 | 32.01169 | 40175 ft | 452 kts | 289° |
| 2026-05-07 16:12 | 35.33676 | 31.93848 | 40173 ft | 452 kts | 289° |
| 2026-05-07 16:12 | 35.35599 | 31.86527 | 40168 ft | 451 kts | 289° |
| 2026-05-07 16:13 | 35.37517 | 31.79198 | 40176 ft | 451 kts | 289° |
| 2026-05-07 16:13 | 35.39427 | 31.71872 | 40173 ft | 451 kts | 289° |
| 2026-05-07 16:14 | 35.41331 | 31.64550 | 40176 ft | 451 kts | 289° |
| 2026-05-07 16:14 | 35.43230 | 31.57225 | 40175 ft | 451 kts | 289° |
| 2026-05-07 16:15 | 35.45123 | 31.49901 | 40168 ft | 450 kts | 289° |
| 2026-05-07 16:15 | 35.47012 | 31.42576 | 40176 ft | 450 kts | 289° |
| 2026-05-07 16:16 | 35.48895 | 31.35254 | 40169 ft | 450 kts | 289° |
| 2026-05-07 16:16 | 35.50776 | 31.27918 | 40179 ft | 450 kts | 289° |
| 2026-05-07 16:17 | 35.52651 | 31.20582 | 40180 ft | 450 kts | 289° |
| 2026-05-07 16:17 | 35.54518 | 31.13258 | 40170 ft | 450 kts | 289° |
| 2026-05-07 16:18 | 35.56383 | 31.05923 | 40173 ft | 450 kts | 289° |
| 2026-05-07 16:18 | 35.58240 | 30.98597 | 40171 ft | 449 kts | 289° |
| 2026-05-07 16:19 | 35.60081 | 30.91314 | 40176 ft | 449 kts | 289° |
| 2026-05-07 16:19 | 35.61928 | 30.83988 | 40176 ft | 449 kts | 289° |
| 2026-05-07 16:20 | 35.63805 | 30.76678 | 40178 ft | 448 kts | 289° |
| 2026-05-07 16:20 | 35.65699 | 30.69384 | 40175 ft | 448 kts | 289° |
| 2026-05-07 16:21 | 35.67584 | 30.62084 | 40178 ft | 447 kts | 289° |
| 2026-05-07 16:21 | 35.69456 | 30.54791 | 40174 ft | 447 kts | 289° |
| 2026-05-07 16:22 | 35.71321 | 30.47499 | 40175 ft | 446 kts | 289° |
| 2026-05-07 16:22 | 35.73178 | 30.40213 | 40180 ft | 446 kts | 289° |
| 2026-05-07 16:23 | 35.75030 | 30.32929 | 40181 ft | 445 kts | 289° |
| 2026-05-07 16:23 | 35.76876 | 30.25653 | 40175 ft | 445 kts | 289° |
| 2026-05-07 16:24 | 35.78713 | 30.18386 | 40190 ft | 444 kts | 289° |
| 2026-05-07 16:24 | 35.80237 | 30.12345 | 40179 ft | 444 kts | 289° |
| 2026-05-07 16:25 | 35.82356 | 30.03918 | 40181 ft | 443 kts | 289° |
| 2026-05-07 16:25 | 35.83884 | 29.97843 | 40181 ft | 442 kts | 289° |
| 2026-05-07 16:26 | 35.85808 | 29.90697 | 40186 ft | 442 kts | 290° |
| 2026-05-07 16:26 | 35.87792 | 29.83529 | 40182 ft | 442 kts | 290° |
| 2026-05-07 16:27 | 35.89755 | 29.76354 | 40187 ft | 442 kts | 290° |
| 2026-05-07 16:27 | 35.91698 | 29.69168 | 40188 ft | 441 kts | 290° |
| 2026-05-07 16:28 | 35.93644 | 29.61977 | 40190 ft | 441 kts | 291° |
| 2026-05-07 16:28 | 35.96398 | 29.55254 | 40187 ft | 439 kts | 305° |
| 2026-05-07 16:29 | 36.00532 | 29.49725 | 40199 ft | 440 kts | 317° |
| 2026-05-07 16:29 | 36.05237 | 29.44861 | 40189 ft | 441 kts | 319° |
| 2026-05-07 16:30 | 36.10010 | 29.40090 | 40195 ft | 441 kts | 319° |
| 2026-05-07 16:30 | 36.14776 | 29.35295 | 40193 ft | 441 kts | 319° |
| 2026-05-07 16:31 | 36.19519 | 29.30477 | 40196 ft | 441 kts | 319° |
| 2026-05-07 16:31 | 36.24217 | 29.25579 | 40196 ft | 441 kts | 318° |
| 2026-05-07 16:32 | 36.28886 | 29.20642 | 40199 ft | 441 kts | 318° |
| 2026-05-07 16:32 | 36.33564 | 29.15707 | 40195 ft | 442 kts | 318° |
| 2026-05-07 16:33 | 36.38219 | 29.10802 | 40198 ft | 442 kts | 318° |
| 2026-05-07 16:33 | 36.42903 | 29.05862 | 40195 ft | 442 kts | 318° |
| 2026-05-07 16:34 | 36.47590 | 29.00911 | 40198 ft | 442 kts | 318° |
| 2026-05-07 16:34 | 36.52270 | 28.95960 | 40192 ft | 442 kts | 318° |
| 2026-05-07 16:35 | 36.56948 | 28.91003 | 40192 ft | 442 kts | 318° |
| 2026-05-07 16:35 | 36.61597 | 28.86069 | 40185 ft | 442 kts | 318° |
| 2026-05-07 16:36 | 36.66274 | 28.81097 | 40187 ft | 442 kts | 318° |
| 2026-05-07 16:36 | 36.70949 | 28.76117 | 40185 ft | 442 kts | 318° |
| 2026-05-07 16:37 | 36.75633 | 28.71152 | 40188 ft | 442 kts | 319° |
| 2026-05-07 16:37 | 36.80318 | 28.66189 | 40190 ft | 442 kts | 319° |
| 2026-05-07 16:38 | 36.85003 | 28.61213 | 40191 ft | 442 kts | 318° |
| 2026-05-07 16:38 | 36.89688 | 28.56224 | 40195 ft | 442 kts | 318° |
| 2026-05-07 16:39 | 36.94371 | 28.51227 | 40201 ft | 442 kts | 318° |
| 2026-05-07 16:39 | 36.99053 | 28.46225 | 40201 ft | 443 kts | 318° |
| 2026-05-07 16:40 | 37.03728 | 28.41221 | 40208 ft | 442 kts | 318° |
| 2026-05-07 16:40 | 37.08401 | 28.36212 | 40203 ft | 442 kts | 318° |
| 2026-05-07 16:41 | 37.13053 | 28.31180 | 40202 ft | 442 kts | 318° |
| 2026-05-07 16:41 | 37.17699 | 28.26140 | 40210 ft | 442 kts | 318° |
| 2026-05-07 16:42 | 37.22357 | 28.21116 | 40203 ft | 441 kts | 318° |
| 2026-05-07 16:42 | 37.27005 | 28.16102 | 40196 ft | 441 kts | 318° |
| 2026-05-07 16:43 | 37.31655 | 28.11078 | 40200 ft | 441 kts | 318° |
| 2026-05-07 16:43 | 37.36259 | 28.06067 | 40197 ft | 440 kts | 318° |
| 2026-05-07 16:44 | 37.40906 | 28.00977 | 40197 ft | 440 kts | 318° |
| 2026-05-07 16:44 | 37.45490 | 27.95955 | 40195 ft | 440 kts | 318° |
| 2026-05-07 16:45 | 37.50108 | 27.90892 | 40193 ft | 440 kts | 318° |
| 2026-05-07 16:45 | 37.54721 | 27.85828 | 40178 ft | 440 kts | 318° |
| 2026-05-07 16:46 | 37.59316 | 27.80776 | 40178 ft | 440 kts | 318° |
| 2026-05-07 16:46 | 37.63924 | 27.75699 | 40172 ft | 439 kts | 318° |
| 2026-05-07 16:47 | 37.68526 | 27.70621 | 40169 ft | 439 kts | 318° |
| 2026-05-07 16:47 | 37.73123 | 27.65540 | 40169 ft | 439 kts | 318° |
| 2026-05-07 16:48 | 37.77724 | 27.60445 | 40171 ft | 440 kts | 318° |
| 2026-05-07 16:48 | 37.82323 | 27.55344 | 40169 ft | 440 kts | 318° |
| 2026-05-07 16:49 | 37.86919 | 27.50237 | 40173 ft | 440 kts | 318° |
| 2026-05-07 16:49 | 37.91526 | 27.45134 | 40172 ft | 440 kts | 318° |
| 2026-05-07 16:50 | 37.96157 | 27.40060 | 40173 ft | 440 kts | 318° |
| 2026-05-07 16:50 | 38.00791 | 27.34980 | 40172 ft | 440 kts | 318° |
| 2026-05-07 16:51 | 38.05418 | 27.29891 | 40180 ft | 441 kts | 318° |
| 2026-05-07 16:51 | 38.10041 | 27.24793 | 40179 ft | 440 kts | 318° |
| 2026-05-07 16:52 | 38.14638 | 27.19714 | 40182 ft | 440 kts | 318° |
| 2026-05-07 16:52 | 38.19255 | 27.14603 | 40184 ft | 440 kts | 318° |
| 2026-05-07 16:53 | 38.23872 | 27.09484 | 40187 ft | 440 kts | 318° |
| 2026-05-07 16:53 | 38.28486 | 27.04360 | 40184 ft | 440 kts | 318° |
| 2026-05-07 16:54 | 38.33097 | 26.99232 | 40185 ft | 440 kts | 318° |
| 2026-05-07 16:54 | 38.37729 | 26.94118 | 40177 ft | 441 kts | 318° |
| 2026-05-07 16:55 | 38.42366 | 26.89006 | 40176 ft | 440 kts | 319° |
| 2026-05-07 16:55 | 38.46996 | 26.83887 | 40168 ft | 440 kts | 318° |
| 2026-05-07 16:56 | 38.51596 | 26.78787 | 40166 ft | 441 kts | 318° |
| 2026-05-07 16:56 | 38.58533 | 26.71077 | 40167 ft | 441 kts | 318° |
| 2026-05-07 16:57 | 38.63154 | 26.65930 | 40164 ft | 441 kts | 318° |
| 2026-05-07 16:57 | 38.67776 | 26.60773 | 40165 ft | 441 kts | 318° |
| 2026-05-07 16:58 | 38.72401 | 26.55604 | 40170 ft | 441 kts | 318° |
| 2026-05-07 16:58 | 38.77018 | 26.50433 | 40172 ft | 441 kts | 318° |
| 2026-05-07 16:59 | 38.81638 | 26.45252 | 40172 ft | 441 kts | 318° |
| 2026-05-07 16:59 | 38.86285 | 26.40103 | 40177 ft | 442 kts | 319° |
| 2026-05-07 17:00 | 38.91038 | 26.35098 | 40181 ft | 442 kts | 320° |
| 2026-05-07 17:00 | 38.95799 | 26.30101 | 40182 ft | 442 kts | 320° |
| 2026-05-07 17:01 | 39.00539 | 26.25078 | 40177 ft | 442 kts | 320° |
| 2026-05-07 17:01 | 39.05273 | 26.20031 | 40181 ft | 442 kts | 319° |
| 2026-05-07 17:02 | 39.10003 | 26.14974 | 40179 ft | 442 kts | 319° |
| 2026-05-07 17:02 | 39.14735 | 26.09908 | 40183 ft | 442 kts | 319° |
| 2026-05-07 17:03 | 39.19455 | 26.04846 | 40179 ft | 442 kts | 319° |
| 2026-05-07 17:03 | 39.24179 | 25.99771 | 40181 ft | 442 kts | 319° |
| 2026-05-07 17:04 | 39.28897 | 25.94696 | 40177 ft | 442 kts | 319° |
| 2026-05-07 17:04 | 39.33583 | 25.89571 | 40179 ft | 441 kts | 318° |
| 2026-05-07 17:05 | 39.38214 | 25.84372 | 40178 ft | 441 kts | 318° |
| 2026-05-07 17:05 | 39.42849 | 25.79163 | 40175 ft | 441 kts | 318° |
| 2026-05-07 17:06 | 39.47490 | 25.73961 | 40172 ft | 441 kts | 318° |
| 2026-05-07 17:06 | 39.52123 | 25.68768 | 40170 ft | 441 kts | 318° |
| 2026-05-07 17:07 | 39.56730 | 25.63598 | 40168 ft | 441 kts | 318° |
| 2026-05-07 17:07 | 39.61363 | 25.58387 | 40170 ft | 440 kts | 318° |
| 2026-05-07 17:08 | 39.65985 | 25.53178 | 40166 ft | 440 kts | 318° |
| 2026-05-07 17:08 | 39.70604 | 25.47963 | 40164 ft | 440 kts | 318° |
| 2026-05-07 17:09 | 39.75220 | 25.42743 | 40162 ft | 440 kts | 318° |
| 2026-05-07 17:09 | 39.79827 | 25.37522 | 40160 ft | 439 kts | 317° |
| 2026-05-07 17:10 | 39.84434 | 25.32292 | 40165 ft | 439 kts | 317° |
| 2026-05-07 17:10 | 39.89035 | 25.27059 | 40156 ft | 439 kts | 317° |
| 2026-05-07 17:11 | 39.93229 | 25.21311 | 40158 ft | 438 kts | 307° |
| 2026-05-07 17:11 | 39.96222 | 25.15992 | 40157 ft | 438 kts | 305° |
| 2026-05-07 17:12 | 39.99722 | 25.09507 | 39898 ft | 433 kts | 305° |
| 2026-05-07 17:12 | 40.01435 | 25.06312 | 39012 ft | 426 kts | 305° |
| 2026-05-07 17:12 | 40.03133 | 25.03148 | 37439 ft | 426 kts | 305° |
| 2026-05-07 17:13 | 40.04848 | 24.99959 | 35710 ft | 435 kts | 305° |
| 2026-05-07 17:13 | 40.06628 | 24.96655 | 34362 ft | 451 kts | 306° |
| 2026-05-07 17:13 | 40.08440 | 24.93295 | 33546 ft | 452 kts | 306° |
| 2026-05-07 17:13 | 40.10250 | 24.89937 | 33205 ft | 453 kts | 306° |
| 2026-05-07 17:14 | 40.13860 | 24.83231 | 33158 ft | 454 kts | 306° |
| 2026-05-07 17:14 | 40.15669 | 24.79864 | 33006 ft | 449 kts | 306° |
| 2026-05-07 17:14 | 40.17453 | 24.76538 | 32181 ft | 447 kts | 305° |
| 2026-05-07 17:15 | 40.19252 | 24.73182 | 30971 ft | 455 kts | 305° |
| 2026-05-07 17:15 | 40.21085 | 24.69760 | 29735 ft | 463 kts | 305° |
| 2026-05-07 17:15 | 40.22937 | 24.66299 | 28601 ft | 465 kts | 305° |
| 2026-05-07 17:15 | 40.24786 | 24.62836 | 27683 ft | 463 kts | 305° |
| 2026-05-07 17:16 | 40.26623 | 24.59391 | 26854 ft | 459 kts | 305° |
| 2026-05-07 17:16 | 40.28445 | 24.55971 | 26086 ft | 455 kts | 305° |
| 2026-05-07 17:16 | 40.30243 | 24.52594 | 25358 ft | 450 kts | 305° |
| 2026-05-07 17:16 | 40.32025 | 24.49242 | 24652 ft | 446 kts | 305° |
| 2026-05-07 17:17 | 40.33785 | 24.45927 | 23946 ft | 441 kts | 305° |
| 2026-05-07 17:17 | 40.35529 | 24.42641 | 23156 ft | 437 kts | 305° |
| 2026-05-07 17:17 | 40.37245 | 24.39405 | 22296 ft | 433 kts | 305° |
| 2026-05-07 17:17 | 40.38962 | 24.36163 | 21429 ft | 431 kts | 305° |
| 2026-05-07 17:18 | 40.40663 | 24.32948 | 20617 ft | 427 kts | 305° |
| 2026-05-07 17:18 | 40.42347 | 24.29760 | 19842 ft | 423 kts | 305° |
| 2026-05-07 17:18 | 40.44019 | 24.26593 | 19060 ft | 420 kts | 305° |
| 2026-05-07 17:18 | 40.45671 | 24.23462 | 18390 ft | 415 kts | 305° |
| 2026-05-07 17:19 | 40.47310 | 24.20352 | 17476 ft | 413 kts | 304° |
| 2026-05-07 17:19 | 40.48936 | 24.17263 | 16729 ft | 408 kts | 304° |
| 2026-05-07 17:19 | 40.50535 | 24.14224 | 16053 ft | 402 kts | 304° |
| 2026-05-07 17:19 | 40.52112 | 24.11222 | 15369 ft | 396 kts | 304° |
| 2026-05-07 17:20 | 40.53666 | 24.08261 | 14690 ft | 391 kts | 304° |
| 2026-05-07 17:20 | 40.55202 | 24.05332 | 14030 ft | 386 kts | 304° |
| 2026-05-07 17:20 | 40.56716 | 24.02441 | 13317 ft | 382 kts | 304° |
| 2026-05-07 17:20 | 40.58098 | 23.99495 | 12640 ft | 375 kts | 296° |
| 2026-05-07 17:21 | 40.58942 | 23.96289 | 12014 ft | 369 kts | 281° |
| 2026-05-07 17:21 | 40.59057 | 23.93018 | 11453 ft | 346 kts | 264° |
| 2026-05-07 17:21 | 40.58713 | 23.90069 | 11320 ft | 307 kts | 261° |
| 2026-05-07 17:21 | 40.58355 | 23.87451 | 11240 ft | 276 kts | 261° |
| 2026-05-07 17:22 | 40.58023 | 23.85039 | 11140 ft | 264 kts | 261° |
| 2026-05-07 17:22 | 40.57695 | 23.82665 | 11024 ft | 263 kts | 261° |
| 2026-05-07 17:22 | 40.57368 | 23.80305 | 10908 ft | 263 kts | 261° |
| 2026-05-07 17:22 | 40.57038 | 23.77937 | 10786 ft | 263 kts | 261° |
| 2026-05-07 17:23 | 40.56708 | 23.75581 | 10660 ft | 262 kts | 261° |
| 2026-05-07 17:23 | 40.56379 | 23.73233 | 10465 ft | 262 kts | 261° |
| 2026-05-07 17:23 | 40.56049 | 23.70885 | 10131 ft | 263 kts | 260° |
| 2026-05-07 17:23 | 40.55712 | 23.68493 | 9785 ft | 273 kts | 260° |
| 2026-05-07 17:24 | 40.55358 | 23.65993 | 9554 ft | 278 kts | 260° |
| 2026-05-07 17:24 | 40.55004 | 23.63499 | 9277 ft | 276 kts | 260° |
| 2026-05-07 17:24 | 40.54652 | 23.61015 | 8773 ft | 277 kts | 260° |
| 2026-05-07 17:24 | 40.54298 | 23.58521 | 8341 ft | 277 kts | 260° |
| 2026-05-07 17:25 | 40.53947 | 23.56046 | 7985 ft | 273 kts | 259° |
| 2026-05-07 17:25 | 40.53604 | 23.53635 | 7641 ft | 271 kts | 259° |
| 2026-05-07 17:25 | 40.53256 | 23.51203 | 7298 ft | 271 kts | 259° |
| 2026-05-07 17:25 | 40.52729 | 23.48836 | 6958 ft | 270 kts | 245° |
| 2026-05-07 17:26 | 40.51583 | 23.46856 | 6617 ft | 270 kts | 222° |
| 2026-05-07 17:26 | 40.50123 | 23.45365 | 6259 ft | 269 kts | 217° |
| 2026-05-07 17:26 | 40.48621 | 23.43903 | 5918 ft | 268 kts | 219° |
| 2026-05-07 17:26 | 40.47231 | 23.42230 | 5554 ft | 267 kts | 227° |
| 2026-05-07 17:27 | 40.46086 | 23.40361 | 5219 ft | 266 kts | 236° |
| 2026-05-07 17:27 | 40.45167 | 23.38264 | 4874 ft | 265 kts | 244° |
| 2026-05-07 17:27 | 40.44502 | 23.36017 | 4531 ft | 264 kts | 252° |
| 2026-05-07 17:27 | 40.44100 | 23.33667 | 4225 ft | 263 kts | 261° |
| 2026-05-07 17:28 | 40.43971 | 23.31319 | 4132 ft | 255 kts | 268° |
| 2026-05-07 17:28 | 40.44084 | 23.29069 | 3815 ft | 238 kts | 276° |
| 2026-05-07 17:28 | 40.44405 | 23.26999 | 3353 ft | 226 kts | 283° |
| 2026-05-07 17:28 | 40.44902 | 23.25087 | 2999 ft | 220 kts | 290° |
| 2026-05-07 17:29 | 40.45566 | 23.23270 | 2721 ft | 221 kts | 297° |
| 2026-05-07 17:29 | 40.46360 | 23.21548 | 2427 ft | 220 kts | 300° |
| 2026-05-07 17:29 | 40.47151 | 23.19813 | 2199 ft | 223 kts | 298° |
| 2026-05-07 17:29 | 40.47828 | 23.17974 | 2155 ft | 224 kts | 291° |
| 2026-05-07 17:30 | 40.48316 | 23.16090 | 2158 ft | 206 kts | 284° |
| 2026-05-07 17:30 | 40.48674 | 23.14352 | 2059 ft | 190 kts | 283° |
| 2026-05-07 17:30 | 40.49001 | 23.12681 | 1557 ft | 189 kts | 283° |
| 2026-05-07 17:30 | 40.49327 | 23.11005 | 1343 ft | 189 kts | 283° |
| 2026-05-07 17:31 | 40.49652 | 23.09342 | 1241 ft | 187 kts | 284° |
| 2026-05-07 17:31 | 40.49936 | 23.07682 | 1153 ft | 183 kts | 282° |
| 2026-05-07 17:31 | 40.50202 | 23.06105 | 1044 ft | 173 kts | 283° |
| 2026-05-07 17:31 | 40.50489 | 23.04586 | 843 ft | 170 kts | 284° |
| 2026-05-07 17:32 | 40.50791 | 23.03073 | 675 ft | 171 kts | 285° |
| 2026-05-07 17:32 | 40.51112 | 23.01568 | 581 ft | 172 kts | 287° |
| 2026-05-07 17:32 | 40.51400 | 23.00088 | 405 ft | 160 kts | 283° |
| 2026-05-07 17:32 | 40.51639 | 22.98728 | 197 ft | 147 kts | 285° |
| 2026-05-07 17:33 | 40.51892 | 22.97485 | 46 ft | 133 kts | 285° |
| 2026-05-07 17:33 | 40.52040 | 22.96674 | 32 ft | 44 kts | 285° |
| 2026-05-07 17:33 | 40.52113 | 22.96341 | 31 ft | 31 kts | 285° |
| 2026-05-07 17:33 | 40.52121 | 22.96300 | 31 ft | 0 kts | 284° |